Αρχική σελίδα
METAR-TAF:

METAR-TAF

Αεροδρόμια :

O'Neill Municipal Airport (John L. Baker Field)

O'Neill, Νεμπράσκα, Ηνωμένες Πολιτείες Αμερικής

γεωγραφικό πλάτος: 42-28N, γεωγραφικό μήκος: 098-41W, υψόμετρο: 619 μ

Παρών καιρός

Η αναφορά έγινε 24 λεπτά πριν, στις 01:55 UTC
Άνεμος 8 kt από Β
Θερμοκρασία 12°C
Υγρασία 58%
Πίεση 1018 hPa
Ορατότητα: 16.1 χλμ
Καθαρός ουρανός

METAR: KONL 220155Z AUTO 01008KT 10SM CLR 12/04 A3005 RMK AO2 T01150039

Χρόνος: 21:19 (02:19 UTC)


TAF: λείπει

Μετεωρολογικές αναφορές και προγνώσεις για περισσότερα από 4000 αεροδρόμια (δελτία METAR και TAF).

Οι διαθέσιμοι σταθμοί απεικονίζονται στο χάρτη με κίτρινες και κόκκινες κουκκίδες.

Μετακινήστε το ποντίκι πάνω από τις κουκκίδες για να δείτε το όνομα του σταθμού.

Στη συνέχεια, κάντε κλικ για να δείτε τις μετεωρολογικές αναφορές και τις προγνώσεις καιρού.

Για να αλλάξετε το χάρτη: κάντε κλικ στα πράσινα κουμπιά με τον μαύρο σταυρό για να ζουμάρετε, στο πράσινο κουμπί με την παύλα για να αφαιρέσετε το ζουμ ή στα πράσινα βέλη για να αντιπαραβάλλετε χάρτες.


METAR-TAF: